sensor_id;sensor_type;location;lat;lon;timestamp;temperature;humidity
6333;DHT22;3199;49.102;8.856;2023-07-13T00:02:22;20.40;95.40
6333;DHT22;3199;49.102;8.856;2023-07-13T00:04:48;20.40;95.50
6333;DHT22;3199;49.102;8.856;2023-07-13T00:07:14;20.40;95.80
6333;DHT22;3199;49.102;8.856;2023-07-13T00:09:40;20.40;95.80
6333;DHT22;3199;49.102;8.856;2023-07-13T00:12:28;20.30;95.90
6333;DHT22;3199;49.102;8.856;2023-07-13T00:14:56;20.20;95.90
6333;DHT22;3199;49.102;8.856;2023-07-13T00:17:23;20.20;96.00
6333;DHT22;3199;49.102;8.856;2023-07-13T00:19:48;20.10;96.10
6333;DHT22;3199;49.102;8.856;2023-07-13T00:22:14;20.00;96.20
6333;DHT22;3199;49.102;8.856;2023-07-13T00:24:39;19.90;96.00
6333;DHT22;3199;49.102;8.856;2023-07-13T00:27:08;19.90;96.50
6333;DHT22;3199;49.102;8.856;2023-07-13T00:29:35;19.80;96.40
6333;DHT22;3199;49.102;8.856;2023-07-13T00:32:01;19.70;96.60
6333;DHT22;3199;49.102;8.856;2023-07-13T00:34:27;19.60;96.90
6333;DHT22;3199;49.102;8.856;2023-07-13T00:36:52;19.60;97.10
6333;DHT22;3199;49.102;8.856;2023-07-13T00:39:18;19.50;97.30
6333;DHT22;3199;49.102;8.856;2023-07-13T00:41:43;19.50;97.50
6333;DHT22;3199;49.102;8.856;2023-07-13T00:44:14;19.50;97.70
6333;DHT22;3199;49.102;8.856;2023-07-13T00:46:40;19.50;97.80
6333;DHT22;3199;49.102;8.856;2023-07-13T00:49:07;19.50;97.80
6333;DHT22;3199;49.102;8.856;2023-07-13T00:51:45;19.40;97.90
6333;DHT22;3199;49.102;8.856;2023-07-13T00:54:16;19.40;98.00
6333;DHT22;3199;49.102;8.856;2023-07-13T00:56:45;19.40;98.20
6333;DHT22;3199;49.102;8.856;2023-07-13T00:59:12;19.40;98.20
6333;DHT22;3199;49.102;8.856;2023-07-13T01:01:39;19.30;98.20
6333;DHT22;3199;49.102;8.856;2023-07-13T01:04:05;19.30;98.20
6333;DHT22;3199;49.102;8.856;2023-07-13T01:06:36;19.30;98.30
6333;DHT22;3199;49.102;8.856;2023-07-13T01:09:03;19.30;98.50
6333;DHT22;3199;49.102;8.856;2023-07-13T01:11:29;19.20;98.60
6333;DHT22;3199;49.102;8.856;2023-07-13T01:13:55;19.20;98.60
6333;DHT22;3199;49.102;8.856;2023-07-13T01:16:29;19.20;98.70
6333;DHT22;3199;49.102;8.856;2023-07-13T01:18:55;19.20;98.70
6333;DHT22;3199;49.102;8.856;2023-07-13T01:21:26;19.20;98.90
6333;DHT22;3199;49.102;8.856;2023-07-13T01:23:52;19.20;99.00
6333;DHT22;3199;49.102;8.856;2023-07-13T01:26:17;19.10;99.20
6333;DHT22;3199;49.102;8.856;2023-07-13T01:28:43;19.10;99.20
6333;DHT22;3199;49.102;8.856;2023-07-13T01:31:10;19.10;99.10
6333;DHT22;3199;49.102;8.856;2023-07-13T01:33:38;19.00;99.00
6333;DHT22;3199;49.102;8.856;2023-07-13T01:36:05;19.00;99.30
6333;DHT22;3199;49.102;8.856;2023-07-13T01:38:31;19.00;99.50
6333;DHT22;3199;49.102;8.856;2023-07-13T01:40:56;19.00;99.60
6333;DHT22;3199;49.102;8.856;2023-07-13T01:43:22;19.00;99.70
6333;DHT22;3199;49.102;8.856;2023-07-13T01:45:48;18.90;99.60
6333;DHT22;3199;49.102;8.856;2023-07-13T01:48:13;18.90;99.70
6333;DHT22;3199;49.102;8.856;2023-07-13T01:50:39;18.80;99.90
6333;DHT22;3199;49.102;8.856;2023-07-13T01:53:05;18.80;99.90
6333;DHT22;3199;49.102;8.856;2023-07-13T01:55:31;18.80;99.90
6333;DHT22;3199;49.102;8.856;2023-07-13T01:57:56;18.70;99.90
6333;DHT22;3199;49.102;8.856;2023-07-13T02:00:22;18.70;99.90
6333;DHT22;3199;49.102;8.856;2023-07-13T02:02:47;18.60;99.90
6333;DHT22;3199;49.102;8.856;2023-07-13T02:05:13;18.50;99.90
6333;DHT22;3199;49.102;8.856;2023-07-13T02:07:39;18.50;99.90
6333;DHT22;3199;49.102;8.856;2023-07-13T02:10:07;18.40;99.90
6333;DHT22;3199;49.102;8.856;2023-07-13T02:12:33;18.30;99.90
6333;DHT22;3199;49.102;8.856;2023-07-13T02:14:59;18.20;99.90
6333;DHT22;3199;49.102;8.856;2023-07-13T02:17:26;18.10;99.90
6333;DHT22;3199;49.102;8.856;2023-07-13T02:19:51;18.10;99.90
6333;DHT22;3199;49.102;8.856;2023-07-13T02:22:17;18.10;99.90
6333;DHT22;3199;49.102;8.856;2023-07-13T02:24:42;18.00;99.90
6333;DHT22;3199;49.102;8.856;2023-07-13T02:27:08;17.90;99.90
6333;DHT22;3199;49.102;8.856;2023-07-13T02:29:33;17.90;99.90
6333;DHT22;3199;49.102;8.856;2023-07-13T02:31:59;17.80;99.90
6333;DHT22;3199;49.102;8.856;2023-07-13T02:34:24;17.80;99.90
6333;DHT22;3199;49.102;8.856;2023-07-13T02:36:50;17.80;99.90
6333;DHT22;3199;49.102;8.856;2023-07-13T02:39:15;17.80;99.90
6333;DHT22;3199;49.102;8.856;2023-07-13T02:41:41;17.70;99.90
6333;DHT22;3199;49.102;8.856;2023-07-13T02:44:07;17.60;99.90
6333;DHT22;3199;49.102;8.856;2023-07-13T02:46:35;17.60;99.90
6333;DHT22;3199;49.102;8.856;2023-07-13T02:49:02;17.50;99.90
6333;DHT22;3199;49.102;8.856;2023-07-13T02:51:27;17.40;99.90
6333;DHT22;3199;49.102;8.856;2023-07-13T02:53:54;17.40;99.90
6333;DHT22;3199;49.102;8.856;2023-07-13T02:56:24;17.40;99.90
6333;DHT22;3199;49.102;8.856;2023-07-13T02:58:50;17.40;99.90
6333;DHT22;3199;49.102;8.856;2023-07-13T03:01:16;17.40;99.90
6333;DHT22;3199;49.102;8.856;2023-07-13T03:03:44;17.50;99.90
6333;DHT22;3199;49.102;8.856;2023-07-13T03:06:11;17.50;99.90
6333;DHT22;3199;49.102;8.856;2023-07-13T03:08:37;17.50;99.90
6333;DHT22;3199;49.102;8.856;2023-07-13T03:11:08;17.50;99.90
6333;DHT22;3199;49.102;8.856;2023-07-13T03:13:34;17.50;99.90
6333;DHT22;3199;49.102;8.856;2023-07-13T03:16:00;17.50;99.90
6333;DHT22;3199;49.102;8.856;2023-07-13T03:18:27;17.50;99.90
6333;DHT22;3199;49.102;8.856;2023-07-13T03:20:53;17.50;99.90
6333;DHT22;3199;49.102;8.856;2023-07-13T03:23:20;17.50;99.90
6333;DHT22;3199;49.102;8.856;2023-07-13T03:25:45;17.40;99.90
6333;DHT22;3199;49.102;8.856;2023-07-13T03:28:12;17.30;99.90
6333;DHT22;3199;49.102;8.856;2023-07-13T03:30:37;17.20;99.90
6333;DHT22;3199;49.102;8.856;2023-07-13T03:33:03;17.20;99.90
6333;DHT22;3199;49.102;8.856;2023-07-13T03:35:29;17.30;99.90
6333;DHT22;3199;49.102;8.856;2023-07-13T03:37:54;17.30;99.90
6333;DHT22;3199;49.102;8.856;2023-07-13T03:40:20;17.30;99.90
6333;DHT22;3199;49.102;8.856;2023-07-13T03:42:46;17.30;99.90
6333;DHT22;3199;49.102;8.856;2023-07-13T03:45:11;17.30;99.90
6333;DHT22;3199;49.102;8.856;2023-07-13T03:47:37;17.40;99.90
6333;DHT22;3199;49.102;8.856;2023-07-13T03:50:03;17.40;99.90
6333;DHT22;3199;49.102;8.856;2023-07-13T03:52:28;17.50;99.90
6333;DHT22;3199;49.102;8.856;2023-07-13T03:54:54;17.50;99.90
6333;DHT22;3199;49.102;8.856;2023-07-13T03:57:19;17.60;99.90
6333;DHT22;3199;49.102;8.856;2023-07-13T03:59:45;17.60;99.90
6333;DHT22;3199;49.102;8.856;2023-07-13T04:02:10;17.70;99.90
6333;DHT22;3199;49.102;8.856;2023-07-13T04:04:36;17.70;99.90
6333;DHT22;3199;49.102;8.856;2023-07-13T04:07:01;17.70;99.90
6333;DHT22;3199;49.102;8.856;2023-07-13T04:09:27;17.70;99.90
6333;DHT22;3199;49.102;8.856;2023-07-13T04:11:52;17.70;99.90
6333;DHT22;3199;49.102;8.856;2023-07-13T04:14:18;17.60;99.90
6333;DHT22;3199;49.102;8.856;2023-07-13T04:16:44;17.50;99.90
6333;DHT22;3199;49.102;8.856;2023-07-13T04:19:10;17.50;99.90
6333;DHT22;3199;49.102;8.856;2023-07-13T04:21:36;17.40;99.90
6333;DHT22;3199;49.102;8.856;2023-07-13T04:24:02;17.40;99.90
6333;DHT22;3199;49.102;8.856;2023-07-13T04:26:28;17.40;99.90
6333;DHT22;3199;49.102;8.856;2023-07-13T04:28:54;17.50;99.90
6333;DHT22;3199;49.102;8.856;2023-07-13T04:31:20;17.50;99.90
6333;DHT22;3199;49.102;8.856;2023-07-13T04:33:47;17.60;99.90
6333;DHT22;3199;49.102;8.856;2023-07-13T04:36:13;17.60;99.90
6333;DHT22;3199;49.102;8.856;2023-07-13T04:38:39;17.70;99.90
6333;DHT22;3199;49.102;8.856;2023-07-13T04:41:06;17.80;99.90
6333;DHT22;3199;49.102;8.856;2023-07-13T04:43:32;17.80;99.90
6333;DHT22;3199;49.102;8.856;2023-07-13T04:46:07;17.80;99.90
6333;DHT22;3199;49.102;8.856;2023-07-13T04:48:33;17.90;99.90
6333;DHT22;3199;49.102;8.856;2023-07-13T04:50:59;17.90;99.90
6333;DHT22;3199;49.102;8.856;2023-07-13T04:53:25;17.90;99.90
6333;DHT22;3199;49.102;8.856;2023-07-13T04:55:51;17.90;99.90
6333;DHT22;3199;49.102;8.856;2023-07-13T04:58:17;18.00;99.90
6333;DHT22;3199;49.102;8.856;2023-07-13T05:00:43;18.00;99.90
6333;DHT22;3199;49.102;8.856;2023-07-13T05:03:08;18.00;99.90
6333;DHT22;3199;49.102;8.856;2023-07-13T05:05:34;18.10;99.90
6333;DHT22;3199;49.102;8.856;2023-07-13T05:07:59;18.20;99.90
6333;DHT22;3199;49.102;8.856;2023-07-13T05:10:25;18.40;99.90
6333;DHT22;3199;49.102;8.856;2023-07-13T05:12:51;18.60;99.90
6333;DHT22;3199;49.102;8.856;2023-07-13T05:15:17;18.90;99.90
6333;DHT22;3199;49.102;8.856;2023-07-13T05:17:47;19.20;99.90
6333;DHT22;3199;49.102;8.856;2023-07-13T05:20:12;19.40;99.90
6333;DHT22;3199;49.102;8.856;2023-07-13T05:22:38;19.60;99.90
6333;DHT22;3199;49.102;8.856;2023-07-13T05:25:07;20.10;99.90
6333;DHT22;3199;49.102;8.856;2023-07-13T05:27:34;21.00;99.90
6333;DHT22;3199;49.102;8.856;2023-07-13T05:30:00;21.80;98.40
6333;DHT22;3199;49.102;8.856;2023-07-13T05:32:25;22.40;96.80
6333;DHT22;3199;49.102;8.856;2023-07-13T05:34:51;22.80;95.00
6333;DHT22;3199;49.102;8.856;2023-07-13T05:37:16;23.10;94.50
6333;DHT22;3199;49.102;8.856;2023-07-13T05:39:42;23.20;92.80
6333;DHT22;3199;49.102;8.856;2023-07-13T05:42:07;23.10;91.70
6333;DHT22;3199;49.102;8.856;2023-07-13T05:44:33;22.70;91.50
6333;DHT22;3199;49.102;8.856;2023-07-13T05:46:58;22.60;91.60
6333;DHT22;3199;49.102;8.856;2023-07-13T05:49:24;22.30;91.50
6333;DHT22;3199;49.102;8.856;2023-07-13T05:51:49;22.10;91.70
6333;DHT22;3199;49.102;8.856;2023-07-13T05:54:15;21.90;91.90
6333;DHT22;3199;49.102;8.856;2023-07-13T05:56:41;21.70;92.30
6333;DHT22;3199;49.102;8.856;2023-07-13T05:59:06;21.60;92.20
6333;DHT22;3199;49.102;8.856;2023-07-13T06:01:32;21.50;92.60
6333;DHT22;3199;49.102;8.856;2023-07-13T06:03:58;21.60;92.80
6333;DHT22;3199;49.102;8.856;2023-07-13T06:06:23;21.70;92.80
6333;DHT22;3199;49.102;8.856;2023-07-13T06:08:49;21.80;93.10
6333;DHT22;3199;49.102;8.856;2023-07-13T06:11:21;22.20;92.60
6333;DHT22;3199;49.102;8.856;2023-07-13T06:13:47;22.40;91.90
6333;DHT22;3199;49.102;8.856;2023-07-13T06:16:14;22.70;92.20
6333;DHT22;3199;49.102;8.856;2023-07-13T06:18:40;22.80;91.60
6333;DHT22;3199;49.102;8.856;2023-07-13T06:21:10;23.20;91.40
6333;DHT22;3199;49.102;8.856;2023-07-13T06:23:36;23.70;90.80
6333;DHT22;3199;49.102;8.856;2023-07-13T06:26:03;24.00;89.80
6333;DHT22;3199;49.102;8.856;2023-07-13T06:28:29;24.50;89.50
6333;DHT22;3199;49.102;8.856;2023-07-13T06:30:55;25.30;88.30
6333;DHT22;3199;49.102;8.856;2023-07-13T06:33:21;26.20;83.90
6333;DHT22;3199;49.102;8.856;2023-07-13T06:35:46;26.70;79.70
6333;DHT22;3199;49.102;8.856;2023-07-13T06:38:12;26.60;75.90
6333;DHT22;3199;49.102;8.856;2023-07-13T06:40:37;26.30;74.70
6333;DHT22;3199;49.102;8.856;2023-07-13T06:43:03;26.30;76.30
6333;DHT22;3199;49.102;8.856;2023-07-13T06:45:28;26.50;74.70
6333;DHT22;3199;49.102;8.856;2023-07-13T06:47:54;26.90;71.00
6333;DHT22;3199;49.102;8.856;2023-07-13T06:50:19;27.80;70.20
6333;DHT22;3199;49.102;8.856;2023-07-13T06:52:45;28.60;68.20
6333;DHT22;3199;49.102;8.856;2023-07-13T06:55:10;29.50;64.20
6333;DHT22;3199;49.102;8.856;2023-07-13T06:57:36;30.20;59.70
6333;DHT22;3199;49.102;8.856;2023-07-13T07:00:01;30.70;56.80
6333;DHT22;3199;49.102;8.856;2023-07-13T07:02:27;30.50;55.40
6333;DHT22;3199;49.102;8.856;2023-07-13T07:04:52;30.60;55.50
6333;DHT22;3199;49.102;8.856;2023-07-13T07:07:19;31.10;54.80
6333;DHT22;3199;49.102;8.856;2023-07-13T07:09:45;31.60;55.20
6333;DHT22;3199;49.102;8.856;2023-07-13T07:12:10;32.10;53.30
6333;DHT22;3199;49.102;8.856;2023-07-13T07:14:36;31.80;53.30
6333;DHT22;3199;49.102;8.856;2023-07-13T07:17:01;31.90;53.50
6333;DHT22;3199;49.102;8.856;2023-07-13T07:19:30;32.20;53.30
6333;DHT22;3199;49.102;8.856;2023-07-13T07:21:56;32.60;52.20
6333;DHT22;3199;49.102;8.856;2023-07-13T07:24:21;33.10;50.90
6333;DHT22;3199;49.102;8.856;2023-07-13T07:26:46;33.30;49.70
6333;DHT22;3199;49.102;8.856;2023-07-13T07:29:12;33.80;49.80
6333;DHT22;3199;49.102;8.856;2023-07-13T07:31:38;33.90;47.80
6333;DHT22;3199;49.102;8.856;2023-07-13T07:34:03;34.20;46.90
6333;DHT22;3199;49.102;8.856;2023-07-13T07:36:29;34.50;47.10
6333;DHT22;3199;49.102;8.856;2023-07-13T07:38:54;34.80;46.30
6333;DHT22;3199;49.102;8.856;2023-07-13T07:41:21;35.20;45.10
6333;DHT22;3199;49.102;8.856;2023-07-13T07:43:46;35.20;44.10
6333;DHT22;3199;49.102;8.856;2023-07-13T07:46:12;34.90;44.30
6333;DHT22;3199;49.102;8.856;2023-07-13T07:48:37;34.90;45.30
6333;DHT22;3199;49.102;8.856;2023-07-13T07:51:03;34.80;43.80
6333;DHT22;3199;49.102;8.856;2023-07-13T07:53:29;35.20;44.40
6333;DHT22;3199;49.102;8.856;2023-07-13T07:55:54;35.10;42.30
6333;DHT22;3199;49.102;8.856;2023-07-13T07:58:20;34.80;42.90
6333;DHT22;3199;49.102;8.856;2023-07-13T08:00:45;34.50;42.40
6333;DHT22;3199;49.102;8.856;2023-07-13T08:03:11;34.30;43.40
6333;DHT22;3199;49.102;8.856;2023-07-13T08:05:36;34.10;44.00
6333;DHT22;3199;49.102;8.856;2023-07-13T08:08:03;33.80;42.40
6333;DHT22;3199;49.102;8.856;2023-07-13T08:10:28;33.60;43.40
6333;DHT22;3199;49.102;8.856;2023-07-13T08:12:54;33.30;43.80
6333;DHT22;3199;49.102;8.856;2023-07-13T08:15:20;33.10;43.50
6333;DHT22;3199;49.102;8.856;2023-07-13T08:17:47;33.30;44.90
6333;DHT22;3199;49.102;8.856;2023-07-13T08:20:13;33.00;43.90
6333;DHT22;3199;49.102;8.856;2023-07-13T08:22:39;33.10;43.10
6333;DHT22;3199;49.102;8.856;2023-07-13T08:25:05;32.90;42.80
6333;DHT22;3199;49.102;8.856;2023-07-13T08:27:30;33.10;43.90
6333;DHT22;3199;49.102;8.856;2023-07-13T08:29:56;33.30;42.90
6333;DHT22;3199;49.102;8.856;2023-07-13T08:32:22;33.80;42.40
6333;DHT22;3199;49.102;8.856;2023-07-13T08:34:48;34.00;43.80
6333;DHT22;3199;49.102;8.856;2023-07-13T08:37:14;34.10;42.70
6333;DHT22;3199;49.102;8.856;2023-07-13T08:39:40;34.30;42.20
6333;DHT22;3199;49.102;8.856;2023-07-13T08:47:32;34.50;41.50
6333;DHT22;3199;49.102;8.856;2023-07-13T08:49:58;34.40;42.40
6333;DHT22;3199;49.102;8.856;2023-07-13T08:52:39;34.40;41.30
6333;DHT22;3199;49.102;8.856;2023-07-13T08:55:13;34.00;41.70
6333;DHT22;3199;49.102;8.856;2023-07-13T08:57:41;34.10;41.80
6333;DHT22;3199;49.102;8.856;2023-07-13T09:00:10;34.10;41.90
6333;DHT22;3199;49.102;8.856;2023-07-13T09:02:57;34.00;42.20
6333;DHT22;3199;49.102;8.856;2023-07-13T09:05:38;33.20;41.90
6333;DHT22;3199;49.102;8.856;2023-07-13T09:10:57;33.30;43.20
6333;DHT22;3199;49.102;8.856;2023-07-13T09:16:05;33.20;43.10
6333;DHT22;3199;49.102;8.856;2023-07-13T09:18:47;32.90;43.30
6333;DHT22;3199;49.102;8.856;2023-07-13T09:21:17;33.00;43.00
6333;DHT22;3199;49.102;8.856;2023-07-13T09:23:43;32.80;42.60
6333;DHT22;3199;49.102;8.856;2023-07-13T09:26:18;32.50;43.80
6333;DHT22;3199;49.102;8.856;2023-07-13T09:28:48;32.20;43.80
6333;DHT22;3199;49.102;8.856;2023-07-13T09:31:24;31.80;44.90
6333;DHT22;3199;49.102;8.856;2023-07-13T09:33:51;32.00;45.00
6333;DHT22;3199;49.102;8.856;2023-07-13T09:36:23;32.30;43.80
6333;DHT22;3199;49.102;8.856;2023-07-13T09:41:57;32.70;43.30
6333;DHT22;3199;49.102;8.856;2023-07-13T09:44:34;33.10;42.90
6333;DHT22;3199;49.102;8.856;2023-07-13T09:47:01;33.10;42.30
6333;DHT22;3199;49.102;8.856;2023-07-13T09:49:38;32.50;43.30
6333;DHT22;3199;49.102;8.856;2023-07-13T09:52:06;32.40;43.40
6333;DHT22;3199;49.102;8.856;2023-07-13T09:54:36;32.10;43.90
6333;DHT22;3199;49.102;8.856;2023-07-13T09:57:03;31.80;43.80
6333;DHT22;3199;49.102;8.856;2023-07-13T09:59:31;31.80;44.80
6333;DHT22;3199;49.102;8.856;2023-07-13T10:01:56;31.80;43.50
6333;DHT22;3199;49.102;8.856;2023-07-13T10:04:31;31.10;43.30
6333;DHT22;3199;49.102;8.856;2023-07-13T10:07:08;31.00;44.90
6333;DHT22;3199;49.102;8.856;2023-07-13T10:09:34;31.10;45.40
6333;DHT22;3199;49.102;8.856;2023-07-13T10:11:59;31.20;44.30
6333;DHT22;3199;49.102;8.856;2023-07-13T10:14:25;31.20;44.30
6333;DHT22;3199;49.102;8.856;2023-07-13T10:16:59;31.50;46.00
6333;DHT22;3199;49.102;8.856;2023-07-13T10:19:30;31.70;44.30
6333;DHT22;3199;49.102;8.856;2023-07-13T10:21:58;31.90;44.60
6333;DHT22;3199;49.102;8.856;2023-07-13T10:24:33;32.00;44.50
6333;DHT22;3199;49.102;8.856;2023-07-13T10:27:20;31.80;43.10
6333;DHT22;3199;49.102;8.856;2023-07-13T10:32:26;31.30;42.90
6333;DHT22;3199;49.102;8.856;2023-07-13T10:34:51;31.60;43.80
6333;DHT22;3199;49.102;8.856;2023-07-13T10:37:30;31.90;43.60
6333;DHT22;3199;49.102;8.856;2023-07-13T10:39:58;31.60;43.10
6333;DHT22;3199;49.102;8.856;2023-07-13T10:42:32;31.60;42.60
6333;DHT22;3199;49.102;8.856;2023-07-13T10:44:58;31.20;42.80
6333;DHT22;3199;49.102;8.856;2023-07-13T10:47:24;30.30;41.70
6333;DHT22;3199;49.102;8.856;2023-07-13T10:49:53;29.90;42.90
6333;DHT22;3199;49.102;8.856;2023-07-13T10:58:11;29.60;43.60
6333;DHT22;3199;49.102;8.856;2023-07-13T11:00:46;29.80;43.70
6333;DHT22;3199;49.102;8.856;2023-07-13T11:03:15;29.80;42.50
6333;DHT22;3199;49.102;8.856;2023-07-13T11:05:42;30.10;42.40
6333;DHT22;3199;49.102;8.856;2023-07-13T11:08:16;29.90;42.40
6333;DHT22;3199;49.102;8.856;2023-07-13T11:10:51;30.10;42.80
6333;DHT22;3199;49.102;8.856;2023-07-13T11:13:37;30.30;42.70
6333;DHT22;3199;49.102;8.856;2023-07-13T11:18:52;30.80;42.70
6333;DHT22;3199;49.102;8.856;2023-07-13T11:21:25;30.70;41.30
6333;DHT22;3199;49.102;8.856;2023-07-13T11:23:55;30.50;41.40
6333;DHT22;3199;49.102;8.856;2023-07-13T11:31:56;30.70;42.50
6333;DHT22;3199;49.102;8.856;2023-07-13T11:34:40;30.60;40.70
6333;DHT22;3199;49.102;8.856;2023-07-13T11:37:12;30.40;41.20
6333;DHT22;3199;49.102;8.856;2023-07-13T11:39:42;30.00;41.80
6333;DHT22;3199;49.102;8.856;2023-07-13T11:42:16;30.10;43.20
6333;DHT22;3199;49.102;8.856;2023-07-13T11:44:47;30.20;43.10
6333;DHT22;3199;49.102;8.856;2023-07-13T11:47:18;30.40;43.00
6333;DHT22;3199;49.102;8.856;2023-07-13T11:49:53;30.70;42.60
6333;DHT22;3199;49.102;8.856;2023-07-13T11:52:34;31.00;42.30
6333;DHT22;3199;49.102;8.856;2023-07-13T11:55:02;30.80;41.70
6333;DHT22;3199;49.102;8.856;2023-07-13T11:57:36;30.30;42.20
6333;DHT22;3199;49.102;8.856;2023-07-13T12:00:11;29.80;42.70
6333;DHT22;3199;49.102;8.856;2023-07-13T12:02:40;29.50;43.40
6333;DHT22;3199;49.102;8.856;2023-07-13T12:05:11;29.50;44.60
6333;DHT22;3199;49.102;8.856;2023-07-13T12:07:38;29.30;44.20
6333;DHT22;3199;49.102;8.856;2023-07-13T12:12:59;28.40;45.50
6333;DHT22;3199;49.102;8.856;2023-07-13T12:15:43;28.20;46.70
6333;DHT22;3199;49.102;8.856;2023-07-13T12:18:22;28.30;47.00
6333;DHT22;3199;49.102;8.856;2023-07-13T12:20:51;28.70;46.80
6333;DHT22;3199;49.102;8.856;2023-07-13T12:25:53;29.40;47.30
6333;DHT22;3199;49.102;8.856;2023-07-13T12:28:37;29.80;46.30
6333;DHT22;3199;49.102;8.856;2023-07-13T12:33:56;29.90;45.00
6333;DHT22;3199;49.102;8.856;2023-07-13T12:36:22;29.70;45.30
6333;DHT22;3199;49.102;8.856;2023-07-13T12:38:48;29.20;45.10
6333;DHT22;3199;49.102;8.856;2023-07-13T12:41:15;28.80;45.90
6333;DHT22;3199;49.102;8.856;2023-07-13T12:43:41;28.90;47.00
6333;DHT22;3199;49.102;8.856;2023-07-13T12:46:19;29.00;46.50
6333;DHT22;3199;49.102;8.856;2023-07-13T12:48:49;29.00;46.80
6333;DHT22;3199;49.102;8.856;2023-07-13T12:51:16;29.00;45.80
6333;DHT22;3199;49.102;8.856;2023-07-13T12:53:48;29.00;46.50
6333;DHT22;3199;49.102;8.856;2023-07-13T12:56:22;29.40;46.60
6333;DHT22;3199;49.102;8.856;2023-07-13T12:58:49;29.70;46.30
6333;DHT22;3199;49.102;8.856;2023-07-13T13:01:21;29.70;44.80
6333;DHT22;3199;49.102;8.856;2023-07-13T13:03:52;29.80;45.10
6333;DHT22;3199;49.102;8.856;2023-07-13T13:08:46;30.10;45.60
6333;DHT22;3199;49.102;8.856;2023-07-13T13:11:11;30.10;45.10
6333;DHT22;3199;49.102;8.856;2023-07-13T13:13:37;29.80;45.30
6333;DHT22;3199;49.102;8.856;2023-07-13T13:16:28;29.70;45.30
6333;DHT22;3199;49.102;8.856;2023-07-13T13:18:57;29.40;46.00
6333;DHT22;3199;49.102;8.856;2023-07-13T13:21:25;29.30;45.40
6333;DHT22;3199;49.102;8.856;2023-07-13T13:23:51;29.30;45.00
6333;DHT22;3199;49.102;8.856;2023-07-13T13:26:19;29.10;44.90
6333;DHT22;3199;49.102;8.856;2023-07-13T13:28:46;28.90;45.40
6333;DHT22;3199;49.102;8.856;2023-07-13T13:31:15;28.80;45.80
6333;DHT22;3199;49.102;8.856;2023-07-13T13:33:43;28.80;45.80
6333;DHT22;3199;49.102;8.856;2023-07-13T13:36:22;29.20;45.30
6333;DHT22;3199;49.102;8.856;2023-07-13T13:38:49;29.50;43.90
6333;DHT22;3199;49.102;8.856;2023-07-13T13:41:15;29.30;43.10
6333;DHT22;3199;49.102;8.856;2023-07-13T13:43:42;29.20;42.90
6333;DHT22;3199;49.102;8.856;2023-07-13T13:46:20;28.90;44.30
6333;DHT22;3199;49.102;8.856;2023-07-13T13:48:46;28.70;44.70
6333;DHT22;3199;49.102;8.856;2023-07-13T13:51:19;28.60;45.00
6333;DHT22;3199;49.102;8.856;2023-07-13T13:53:45;28.50;45.60
6333;DHT22;3199;49.102;8.856;2023-07-13T13:56:12;28.60;46.00
6333;DHT22;3199;49.102;8.856;2023-07-13T13:58:38;28.60;45.70
6333;DHT22;3199;49.102;8.856;2023-07-13T14:01:04;28.60;45.00
6333;DHT22;3199;49.102;8.856;2023-07-13T14:03:33;28.80;45.50
6333;DHT22;3199;49.102;8.856;2023-07-13T14:05:59;29.00;44.20
6333;DHT22;3199;49.102;8.856;2023-07-13T14:08:25;29.00;44.50
6333;DHT22;3199;49.102;8.856;2023-07-13T14:10:53;28.90;43.90
6333;DHT22;3199;49.102;8.856;2023-07-13T14:13:24;29.00;44.80
6333;DHT22;3199;49.102;8.856;2023-07-13T14:15:55;29.10;44.10
6333;DHT22;3199;49.102;8.856;2023-07-13T14:18:21;29.30;43.00
6333;DHT22;3199;49.102;8.856;2023-07-13T14:20:48;29.20;41.90
6333;DHT22;3199;49.102;8.856;2023-07-13T14:23:14;29.00;41.80
6333;DHT22;3199;49.102;8.856;2023-07-13T14:25:41;29.00;42.10
6333;DHT22;3199;49.102;8.856;2023-07-13T14:28:33;29.30;42.30
6333;DHT22;3199;49.102;8.856;2023-07-13T14:30:58;29.30;42.30
6333;DHT22;3199;49.102;8.856;2023-07-13T14:33:24;29.20;42.70
6333;DHT22;3199;49.102;8.856;2023-07-13T14:35:50;29.00;42.30
6333;DHT22;3199;49.102;8.856;2023-07-13T14:38:18;29.00;43.10
6333;DHT22;3199;49.102;8.856;2023-07-13T14:40:45;28.80;43.70
6333;DHT22;3199;49.102;8.856;2023-07-13T14:43:12;28.80;44.20
6333;DHT22;3199;49.102;8.856;2023-07-13T14:45:40;28.90;43.10
6333;DHT22;3199;49.102;8.856;2023-07-13T14:48:32;28.90;43.30
6333;DHT22;3199;49.102;8.856;2023-07-13T14:50:58;28.90;43.60
6333;DHT22;3199;49.102;8.856;2023-07-13T14:53:26;28.80;43.50
6333;DHT22;3199;49.102;8.856;2023-07-13T14:55:53;28.60;43.80
6333;DHT22;3199;49.102;8.856;2023-07-13T14:58:19;28.50;43.60
6333;DHT22;3199;49.102;8.856;2023-07-13T15:00:44;28.40;44.20
6333;DHT22;3199;49.102;8.856;2023-07-13T15:03:18;28.30;43.80
6333;DHT22;3199;49.102;8.856;2023-07-13T15:05:45;28.40;44.40
6333;DHT22;3199;49.102;8.856;2023-07-13T15:08:11;28.40;44.40
6333;DHT22;3199;49.102;8.856;2023-07-13T15:10:37;28.30;44.10
6333;DHT22;3199;49.102;8.856;2023-07-13T15:13:21;28.10;44.20
6333;DHT22;3199;49.102;8.856;2023-07-13T15:15:49;28.10;44.90
6333;DHT22;3199;49.102;8.856;2023-07-13T15:18:21;28.10;44.70
6333;DHT22;3199;49.102;8.856;2023-07-13T15:20:48;28.20;44.90
6333;DHT22;3199;49.102;8.856;2023-07-13T15:23:16;28.10;44.30
6333;DHT22;3199;49.102;8.856;2023-07-13T15:25:42;28.10;44.80
6333;DHT22;3199;49.102;8.856;2023-07-13T15:28:09;28.10;45.10
6333;DHT22;3199;49.102;8.856;2023-07-13T15:30:47;28.10;44.80
6333;DHT22;3199;49.102;8.856;2023-07-13T15:33:23;28.30;45.40
6333;DHT22;3199;49.102;8.856;2023-07-13T15:35:50;28.20;45.30
6333;DHT22;3199;49.102;8.856;2023-07-13T15:38:20;28.10;44.50
6333;DHT22;3199;49.102;8.856;2023-07-13T15:40:47;28.00;44.90
6333;DHT22;3199;49.102;8.856;2023-07-13T15:43:15;27.90;45.20
6333;DHT22;3199;49.102;8.856;2023-07-13T15:45:41;27.90;44.60
6333;DHT22;3199;49.102;8.856;2023-07-13T15:48:19;28.00;44.60
6333;DHT22;3199;49.102;8.856;2023-07-13T15:50:47;28.10;44.80
6333;DHT22;3199;49.102;8.856;2023-07-13T15:53:19;27.90;44.60
6333;DHT22;3199;49.102;8.856;2023-07-13T15:55:45;27.90;44.50
6333;DHT22;3199;49.102;8.856;2023-07-13T15:58:12;27.90;44.50
6333;DHT22;3199;49.102;8.856;2023-07-13T16:00:40;27.80;44.80
6333;DHT22;3199;49.102;8.856;2023-07-13T16:03:07;27.80;45.20
6333;DHT22;3199;49.102;8.856;2023-07-13T16:05:33;27.70;45.30
6333;DHT22;3199;49.102;8.856;2023-07-13T16:07:59;27.60;45.80
6333;DHT22;3199;49.102;8.856;2023-07-13T16:10:36;27.50;45.90
6333;DHT22;3199;49.102;8.856;2023-07-13T16:13:13;27.50;46.10
6333;DHT22;3199;49.102;8.856;2023-07-13T16:15:39;27.30;45.50
6333;DHT22;3199;49.102;8.856;2023-07-13T16:18:11;27.20;45.40
6333;DHT22;3199;49.102;8.856;2023-07-13T16:20:46;27.10;45.80
6333;DHT22;3199;49.102;8.856;2023-07-13T16:23:13;27.10;46.00
6333;DHT22;3199;49.102;8.856;2023-07-13T16:25:39;27.10;46.30
6333;DHT22;3199;49.102;8.856;2023-07-13T16:28:06;27.00;46.90
6333;DHT22;3199;49.102;8.856;2023-07-13T16:30:32;26.90;46.80
6333;DHT22;3199;49.102;8.856;2023-07-13T16:33:00;26.70;46.60
6333;DHT22;3199;49.102;8.856;2023-07-13T16:35:39;26.70;47.30
6333;DHT22;3199;49.102;8.856;2023-07-13T16:38:19;26.70;47.60
6333;DHT22;3199;49.102;8.856;2023-07-13T16:40:45;26.50;47.00
6333;DHT22;3199;49.102;8.856;2023-07-13T16:43:17;26.50;47.50
6333;DHT22;3199;49.102;8.856;2023-07-13T16:45:46;26.40;47.60
6333;DHT22;3199;49.102;8.856;2023-07-13T16:48:16;26.50;47.90
6333;DHT22;3199;49.102;8.856;2023-07-13T16:50:43;26.50;48.30